Time;durP1;ratioP1;P1;durP2;ratioP2;P2;SDS_P1;SDS_P2;PMS_P1;PMS_P2;Temp;Humidity;BMP_temperature;BMP_pressure;BME280_temperature;BME280_humidity;BME280_pressure;Samples;Min_cycle;Max_cycle;Signal;HPM_P1;HPM_P2
2023/04/03 00:01:23;;;;;;;2.00;1.90;;;5.70;99.90;;;;;;5112299;28;20231;-82
2023/04/03 00:03:51;;;;;;;2.20;2.08;;;5.60;99.90;;;;;;5112262;28;20207;-84
2023/04/03 00:06:20;;;;;;;2.08;1.95;;;5.60;99.90;;;;;;5112526;28;20208;-82
2023/04/03 00:08:48;;;;;;;6.60;2.42;;;5.60;99.90;;;;;;5111273;28;20306;-82
2023/04/03 00:11:17;;;;;;;2.20;2.00;;;5.60;99.90;;;;;;5112830;28;20220;-82
2023/04/03 00:13:45;;;;;;;1.88;1.77;;;5.70;99.90;;;;;;5114090;28;20286;-82
2023/04/03 00:16:14;;;;;;;4.75;2.78;;;5.70;99.90;;;;;;5114148;28;20227;-82
2023/04/03 00:18:44;;;;;;;1.60;1.50;;;5.70;99.90;;;;;;5100368;28;20204;-82
2023/04/03 00:21:17;;;;;;;2.20;2.08;;;5.70;99.90;;;;;;5093634;28;20221;-81
2023/04/03 00:23:45;;;;;;;2.17;2.00;;;5.70;99.90;;;;;;5093636;28;20204;-84
2023/04/03 00:26:16;;;;;;;1.92;1.83;;;5.70;99.90;;;;;;5093715;28;20196;-82
2023/04/03 00:28:48;;;;;;;1.90;1.80;;;5.70;99.90;;;;;;5093126;28;20208;-82
2023/04/03 00:31:16;;;;;;;2.38;2.17;;;5.70;99.90;;;;;;5093172;28;20251;-82
2023/04/03 00:33:46;;;;;;;2.00;1.90;;;5.70;99.90;;;;;;5096342;28;20204;-82
2023/04/03 00:36:18;;;;;;;2.05;1.95;;;5.70;99.90;;;;;;5113248;28;20223;-84
2023/04/03 00:38:46;;;;;;;1.48;1.38;;;5.60;99.90;;;;;;5113547;28;20204;-82
2023/04/03 00:41:15;;;;;;;2.38;2.17;;;5.60;99.90;;;;;;5113630;28;20227;-82
2023/04/03 00:43:43;;;;;;;2.30;1.95;;;5.70;99.90;;;;;;5113765;28;20203;-82
2023/04/03 00:46:11;;;;;;;2.17;1.80;;;5.70;99.90;;;;;;5113310;28;20200;-80
2023/04/03 00:48:43;;;;;;;1.75;1.65;;;5.70;99.90;;;;;;5100995;28;20210;-81
2023/04/03 00:51:15;;;;;;;4.00;2.03;;;5.70;99.90;;;;;;5113417;28;20231;-87
2023/04/03 00:53:48;;;;;;;20.60;3.95;;;5.60;99.90;;;;;;5100312;28;20224;-88
2023/04/03 00:56:18;;;;;;;3.20;2.90;;;5.60;99.90;;;;;;5092968;28;20269;-87
2023/04/03 00:58:51;;;;;;;6.32;5.18;;;5.70;99.90;;;;;;5101009;28;20200;-87
2023/04/03 01:01:23;;;;;;;13.55;8.32;;;5.60;99.90;;;;;;5112576;28;20233;-80
2023/04/03 01:03:52;;;;;;;12.77;8.88;;;5.60;99.90;;;;;;5112853;28;20536;-87
2023/04/03 01:06:26;;;;;;;7.78;5.78;;;5.60;99.90;;;;;;5113275;28;20188;-87
2023/04/03 01:08:58;;;;;;;3.08;2.20;;;5.60;99.90;;;;;;5112334;28;20199;-80
2023/04/03 01:11:26;;;;;;;2.65;2.45;;;5.50;99.90;;;;;;5111090;28;20368;-80
2023/04/03 01:13:55;;;;;;;1.90;1.80;;;5.50;99.90;;;;;;5113312;28;20277;-80
2023/04/03 01:16:24;;;;;;;1.70;1.60;;;5.50;99.90;;;;;;5112236;28;20216;-80
2023/04/03 01:18:52;;;;;;;2.22;2.03;;;5.50;99.90;;;;;;5112567;28;20212;-87
2023/04/03 01:21:58;;;;;;;2.20;2.00;;;5.50;99.90;;;;;;5112679;28;20257;-87
2023/04/03 01:24:35;;;;;;;1.67;1.58;;;5.50;99.90;;;;;;5113558;28;20203;-87
2023/04/03 01:27:06;;;;;;;3.92;2.80;;;5.50;99.90;;;;;;5112630;28;20242;-87
2023/04/03 01:29:35;;;;;;;2.10;1.90;;;5.50;99.90;;;;;;5112747;28;20207;-86
2023/04/03 01:32:06;;;;;;;1.65;1.60;;;5.50;99.90;;;;;;5112179;28;20243;-81
2023/04/03 01:34:34;;;;;;;2.00;1.90;;;5.50;99.90;;;;;;5113185;28;20236;-88
2023/04/03 01:37:02;;;;;;;3.05;2.35;;;5.50;99.90;;;;;;5112396;28;20250;-87
2023/04/03 01:39:31;;;;;;;2.08;1.95;;;5.50;99.90;;;;;;5112469;28;20200;-89
2023/04/03 01:42:00;;;;;;;2.33;1.80;;;5.50;99.90;;;;;;5107280;28;20243;-88
2023/04/03 01:44:28;;;;;;;1.63;1.52;;;5.40;99.90;;;;;;5115363;28;20233;-88
2023/04/03 01:46:56;;;;;;;1.60;1.17;;;5.40;99.90;;;;;;5114294;28;20248;-88
2023/04/03 01:49:26;;;;;;;1.92;1.83;;;5.40;99.90;;;;;;5117427;28;20203;-88
2023/04/03 01:51:55;;;;;;;2.70;2.47;;;5.40;99.90;;;;;;5116717;28;20250;-88
2023/04/03 01:54:23;;;;;;;2.30;2.10;;;5.50;99.90;;;;;;5117423;28;20207;-88
2023/04/03 01:56:52;;;;;;;2.30;2.10;;;5.40;99.90;;;;;;5123915;28;20200;-87
2023/04/03 01:59:23;;;;;;;1.90;1.80;;;5.40;99.90;;;;;;5117322;28;20286;-82
2023/04/03 02:01:52;;;;;;;2.97;1.70;;;5.40;99.90;;;;;;5115491;28;20219;-89
2023/04/03 02:04:21;;;;;;;3.90;1.90;;;5.50;99.90;;;;;;5106291;28;20200;-81
2023/04/03 02:06:51;;;;;;;4.93;1.73;;;5.40;99.90;;;;;;5107646;28;20185;-88
2023/04/03 02:09:19;;;;;;;2.08;1.88;;;5.50;99.90;;;;;;5096422;28;20221;-88
2023/04/03 02:11:48;;;;;;;1.75;1.65;;;5.50;99.90;;;;;;5095744;28;20220;-88
2023/04/03 02:14:16;;;;;;;3.40;2.03;;;5.50;99.90;;;;;;5096257;28;20226;-88
2023/04/03 02:16:45;;;;;;;2.22;2.03;;;5.50;99.90;;;;;;5095294;28;20225;-88
2023/04/03 02:19:13;;;;;;;1.77;1.67;;;5.50;99.90;;;;;;5113532;28;20287;-89
2023/04/03 02:21:42;;;;;;;2.55;2.35;;;5.50;99.90;;;;;;5116306;28;20211;-88
2023/04/03 02:24:13;;;;;;;2.85;2.40;;;5.50;99.90;;;;;;5116060;28;20226;-88
2023/04/03 02:26:42;;;;;;;2.05;1.95;;;5.40;99.90;;;;;;5116185;28;20207;-87
2023/04/03 02:29:10;;;;;;;2.50;2.10;;;5.40;99.90;;;;;;5116422;28;20202;-87
2023/04/03 02:31:38;;;;;;;2.05;1.95;;;5.40;99.90;;;;;;5116163;28;20246;-87
2023/04/03 02:34:07;;;;;;;2.53;2.33;;;5.40;99.90;;;;;;5116637;28;20204;-88
2023/04/03 02:36:35;;;;;;;2.22;1.98;;;5.40;99.90;;;;;;5115601;28;20277;-84
2023/04/03 02:39:04;;;;;;;5.13;2.63;;;5.40;99.90;;;;;;5115122;28;20260;-87
2023/04/03 02:41:35;;;;;;;4.38;2.47;;;5.40;99.90;;;;;;5115975;28;20223;-86
2023/04/03 02:44:04;;;;;;;2.92;2.45;;;5.40;99.90;;;;;;5109423;28;20235;-86
2023/04/03 02:46:34;;;;;;;3.63;2.05;;;5.40;99.90;;;;;;5115571;28;20204;-87
2023/04/03 02:49:05;;;;;;;2.13;2.03;;;5.40;99.90;;;;;;5115129;28;20249;-87
2023/04/03 02:51:34;;;;;;;2.95;2.55;;;5.40;99.90;;;;;;5115577;28;20232;-87
2023/04/03 02:54:02;;;;;;;2.35;2.15;;;5.50;99.90;;;;;;5115213;28;20331;-83
2023/04/03 02:56:31;;;;;;;1.92;1.83;;;5.40;99.90;;;;;;5115831;28;20282;-83
2023/04/03 02:59:01;;;;;;;1.88;1.77;;;5.40;99.90;;;;;;5114124;28;20254;-83
2023/04/03 03:01:31;;;;;;;2.22;2.13;;;5.40;99.90;;;;;;5115519;28;20280;-87
2023/04/03 03:04:01;;;;;;;6.10;2.25;;;5.30;99.90;;;;;;5115419;28;20206;-87
2023/04/03 03:06:30;;;;;;;2.25;2.10;;;5.40;99.90;;;;;;5115362;28;20283;-87
2023/04/03 03:08:58;;;;;;;2.38;2.17;;;5.40;99.90;;;;;;5097455;28;20268;-87
2023/04/03 03:11:27;;;;;;;1.98;1.88;;;5.40;99.90;;;;;;5094941;28;20232;-88
2023/04/03 03:13:55;;;;;;;1.70;1.60;;;5.40;99.90;;;;;;5112980;28;20199;-87
2023/04/03 03:16:25;;;;;;;1.63;1.52;;;5.30;99.90;;;;;;5115172;28;20200;-87
2023/04/03 03:18:54;;;;;;;1.90;1.80;;;5.40;99.90;;;;;;5100165;28;20224;-87
2023/04/03 03:21:25;;;;;;;2.53;2.15;;;5.40;99.90;;;;;;5100191;28;20258;-87
2023/04/03 03:23:53;;;;;;;2.35;2.15;;;5.40;99.90;;;;;;5115323;28;20208;-84
2023/04/03 03:26:22;;;;;;;2.08;1.92;;;5.40;99.90;;;;;;5115459;28;20212;-87
2023/04/03 03:28:50;;;;;;;1.58;1.48;;;5.30;99.90;;;;;;5114792;28;20199;-87
2023/04/03 03:31:19;;;;;;;3.38;3.00;;;5.30;99.90;;;;;;5114945;28;20243;-87
2023/04/03 03:33:49;;;;;;;3.47;2.10;;;5.40;99.90;;;;;;5114865;28;20199;-87
2023/04/03 03:36:18;;;;;;;2.67;2.22;;;5.40;99.90;;;;;;5114550;28;20192;-87
2023/04/03 03:38:46;;;;;;;1.63;1.52;;;5.40;99.90;;;;;;5114217;28;20247;-87
2023/04/03 03:41:14;;;;;;;2.25;2.05;;;5.30;99.90;;;;;;5107608;28;20307;-87
2023/04/03 03:43:43;;;;;;;2.00;1.90;;;5.40;99.90;;;;;;5094666;28;20264;-88
2023/04/03 03:46:11;;;;;;;2.08;1.77;;;5.40;99.90;;;;;;5094577;28;20201;-87
2023/04/03 03:48:42;;;;;;;2.05;1.92;;;5.30;99.90;;;;;;5093890;28;20201;-87
2023/04/03 03:51:12;;;;;;;2.05;1.95;;;5.30;99.90;;;;;;5094587;28;20263;-87
2023/04/03 03:53:41;;;;;;;2.95;2.25;;;5.30;99.90;;;;;;5094588;28;20211;-87
2023/04/03 03:56:09;;;;;;;4.07;2.65;;;5.30;99.90;;;;;;5094123;28;20223;-86
2023/04/03 03:58:38;;;;;;;2.03;1.92;;;5.30;99.90;;;;;;5093541;28;20229;-86
2023/04/03 04:01:09;;;;;;;2.75;2.05;;;5.30;99.90;;;;;;5093965;28;20235;-86
2023/04/03 04:03:37;;;;;;;1.73;1.63;;;5.30;99.90;;;;;;5114110;28;20196;-86
2023/04/03 04:06:07;;;;;;;2.45;2.20;;;5.30;99.90;;;;;;5114272;28;20234;-82
2023/04/03 04:08:40;;;;;;;1.95;1.85;;;5.30;99.90;;;;;;5113432;28;20230;-82
2023/04/03 04:11:08;;;;;;;4.03;2.78;;;5.30;99.90;;;;;;5114165;28;20247;-86
2023/04/03 04:13:37;;;;;;;2.08;1.95;;;5.30;99.90;;;;;;5098971;28;20246;-86
2023/04/03 04:16:06;;;;;;;5.72;2.47;;;5.30;99.90;;;;;;5098936;28;20204;-86
2023/04/03 04:18:34;;;;;;;1.73;1.63;;;5.20;99.90;;;;;;5113228;28;20352;-86
2023/04/03 04:21:03;;;;;;;1.88;1.77;;;5.20;99.90;;;;;;5113923;28;20279;-86
2023/04/03 04:23:36;;;;;;;2.10;1.90;;;5.20;99.90;;;;;;5114129;28;20203;-86
2023/04/03 04:26:04;;;;;;;2.35;2.15;;;5.10;99.90;;;;;;5113679;28;20200;-86
2023/04/03 04:28:33;;;;;;;1.98;1.88;;;5.20;99.90;;;;;;5113425;28;20217;-86
2023/04/03 04:31:01;;;;;;;1.70;1.60;;;5.20;99.90;;;;;;5113624;28;20247;-86
2023/04/03 04:33:31;;;;;;;1.65;1.55;;;5.10;99.90;;;;;;5113671;28;20215;-86
2023/04/03 04:36:00;;;;;;;2.45;2.05;;;5.10;99.90;;;;;;5113047;28;20227;-87
2023/04/03 04:38:29;;;;;;;2.25;1.98;;;5.10;99.90;;;;;;5103963;28;20292;-87
2023/04/03 04:41:00;;;;;;;2.15;1.95;;;5.10;99.90;;;;;;5095476;28;20220;-86
2023/04/03 04:43:28;;;;;;;1.77;1.67;;;5.10;99.90;;;;;;5102267;28;20204;-87
2023/04/03 04:46:05;;;;;;;1.92;1.83;;;5.10;99.90;;;;;;5113914;28;20242;-86
2023/04/03 04:48:35;;;;;;;2.03;1.92;;;5.10;99.90;;;;;;5100531;28;20204;-86
2023/04/03 04:51:07;;;;;;;2.60;2.40;;;5.00;99.90;;;;;;5098818;28;20306;-86
2023/04/03 04:53:38;;;;;;;1.92;1.77;;;5.00;99.90;;;;;;5113120;28;20286;-86
2023/04/03 04:56:09;;;;;;;1.85;1.50;;;5.00;99.90;;;;;;5111291;28;20203;-85
2023/04/03 04:58:37;;;;;;;2.85;2.60;;;5.00;99.90;;;;;;5112549;28;20226;-86
2023/04/03 05:01:08;;;;;;;2.45;1.88;;;5.00;99.90;;;;;;5113161;28;20224;-87
2023/04/03 05:03:38;;;;;;;2.63;2.40;;;5.00;99.90;;;;;;5112865;28;20287;-86
2023/04/03 05:06:07;;;;;;;5.32;2.75;;;5.00;99.90;;;;;;5113230;28;20279;-87
2023/04/03 05:08:36;;;;;;;2.95;2.33;;;5.10;99.90;;;;;;5113082;28;20195;-82
2023/04/03 05:11:05;;;;;;;2.08;1.95;;;5.10;99.90;;;;;;5112909;28;20239;-83
2023/04/03 05:13:35;;;;;;;2.55;2.05;;;5.00;99.90;;;;;;5112906;28;20341;-86
2023/04/03 05:16:04;;;;;;;2.83;2.55;;;5.00;99.90;;;;;;5112978;28;20204;-86
2023/04/03 05:18:33;;;;;;;1.75;1.48;;;5.00;99.90;;;;;;5112291;28;20298;-86
2023/04/03 05:21:01;;;;;;;1.85;1.75;;;5.00;99.90;;;;;;5112309;28;20231;-86
2023/04/03 05:23:30;;;;;;;2.00;1.90;;;5.00;99.90;;;;;;5112638;28;20210;-86
2023/04/03 05:25:58;;;;;;;1.88;1.67;;;5.00;99.90;;;;;;5112716;28;20299;-86
2023/04/03 05:28:29;;;;;;;2.00;1.85;;;4.90;99.90;;;;;;5112658;28;20260;-86
2023/04/03 05:30:59;;;;;;;2.25;1.90;;;4.90;99.90;;;;;;5113035;28;20228;-86
2023/04/03 05:33:28;;;;;;;2.70;2.50;;;4.90;99.90;;;;;;5112798;28;20263;-86
2023/04/03 05:35:57;;;;;;;2.15;1.95;;;4.90;99.90;;;;;;5112583;28;20260;-82
2023/04/03 05:38:25;;;;;;;2.17;2.08;;;4.90;99.90;;;;;;5112479;28;20227;-82
2023/04/03 05:40:54;;;;;;;3.67;2.60;;;5.00;99.90;;;;;;5112565;28;20272;-82
2023/04/03 05:43:22;;;;;;;2.67;2.47;;;5.00;99.90;;;;;;5112825;28;20207;-86
2023/04/03 05:45:51;;;;;;;1.77;1.67;;;5.00;99.90;;;;;;5112399;28;20282;-86
2023/04/03 05:48:23;;;;;;;2.17;2.03;;;4.90;99.90;;;;;;5111808;28;20233;-82
2023/04/03 05:50:52;;;;;;;2.25;2.08;;;5.10;99.90;;;;;;5112590;28;20227;-87
2023/04/03 05:53:27;;;;;;;3.05;2.50;;;5.10;99.90;;;;;;5112560;28;20206;-85
2023/04/03 05:55:56;;;;;;;2.17;1.98;;;5.10;99.90;;;;;;5112953;28;20235;-85
2023/04/03 05:58:24;;;;;;;2.13;1.92;;;5.10;99.90;;;;;;5112139;28;20234;-84
2023/04/03 06:00:54;;;;;;;2.25;2.00;;;5.10;99.90;;;;;;5112450;28;20223;-85
2023/04/03 06:03:27;;;;;;;1.70;1.60;;;5.10;99.90;;;;;;5112363;28;20222;-82
2023/04/03 06:05:56;;;;;;;1.92;1.83;;;5.10;99.90;;;;;;5116642;28;20223;-83
2023/04/03 06:08:24;;;;;;;3.30;2.60;;;5.20;99.90;;;;;;5112293;28;20252;-82
2023/04/03 06:10:53;;;;;;;3.63;2.08;;;5.20;99.90;;;;;;5112462;28;20264;-83
2023/04/03 06:13:21;;;;;;;1.67;1.55;;;5.20;99.90;;;;;;5099679;28;20235;-80
2023/04/03 06:15:50;;;;;;;2.45;2.25;;;5.20;99.90;;;;;;5092054;28;20239;-81
2023/04/03 06:18:18;;;;;;;1.95;1.85;;;5.30;99.90;;;;;;5101145;28;20260;-80
2023/04/03 06:20:48;;;;;;;2.90;1.98;;;5.20;99.90;;;;;;5112427;28;20315;-80
2023/04/03 06:23:16;;;;;;;2.38;2.17;;;5.30;99.90;;;;;;5112875;28;20242;-81
2023/04/03 06:25:45;;;;;;;3.72;2.65;;;5.30;99.90;;;;;;5112175;28;20235;-81
2023/04/03 06:28:13;;;;;;;1.98;1.85;;;5.40;99.90;;;;;;5112311;28;20231;-80
2023/04/03 06:30:42;;;;;;;2.17;1.98;;;5.50;99.90;;;;;;5112409;28;20230;-80
2023/04/03 06:33:10;;;;;;;1.83;1.73;;;5.50;99.90;;;;;;5115112;28;20203;-80
2023/04/03 06:35:38;;;;;;;14.57;2.45;;;5.50;99.90;;;;;;5116538;28;20241;-80
2023/04/03 06:38:09;;;;;;;3.33;2.35;;;5.50;99.90;;;;;;5115716;28;20216;-80
2023/04/03 06:40:38;;;;;;;2.33;1.95;;;5.40;99.90;;;;;;5115489;28;20236;-85
2023/04/03 06:43:07;;;;;;;1.65;1.55;;;5.50;99.90;;;;;;5116309;28;20214;-84
2023/04/03 06:45:36;;;;;;;2.70;2.50;;;5.50;99.90;;;;;;5116080;28;20219;-84
2023/04/03 06:48:05;;;;;;;2.50;2.30;;;5.40;99.90;;;;;;5115232;28;20196;-84
2023/04/03 06:50:33;;;;;;;1.80;1.70;;;5.40;99.90;;;;;;5115550;28;20196;-85
2023/04/03 06:53:03;;;;;;;1.77;1.67;;;5.30;99.90;;;;;;5115813;28;20204;-84
2023/04/03 06:55:33;;;;;;;4.90;2.05;;;5.40;99.90;;;;;;5115788;28;20214;-84
2023/04/03 06:58:01;;;;;;;2.50;2.30;;;5.30;99.90;;;;;;5115279;28;20211;-85
2023/04/03 07:00:30;;;;;;;2.90;2.17;;;5.30;99.90;;;;;;5115692;28;20192;-86
2023/04/03 07:02:59;;;;;;;185.98;73.88;;;5.30;99.90;;;;;;5115553;28;20356;-86
2023/04/03 07:05:27;;;;;;;7.93;3.53;;;5.30;99.90;;;;;;5115658;28;20271;-84
2023/04/03 07:07:56;;;;;;;3.55;3.25;;;5.30;99.90;;;;;;5115272;28;20215;-84
2023/04/03 07:10:24;;;;;;;2.40;2.20;;;5.40;99.90;;;;;;5115152;28;20256;-84
2023/04/03 07:12:54;;;;;;;2.60;2.00;;;5.50;99.90;;;;;;5115099;28;20196;-84
2023/04/03 07:15:23;;;;;;;2.15;2.00;;;5.50;99.90;;;;;;5115652;28;20199;-84
2023/04/03 07:17:51;;;;;;;2.55;2.28;;;5.50;99.90;;;;;;5108748;28;20287;-84
2023/04/03 07:20:22;;;;;;;2.00;1.90;;;5.60;99.90;;;;;;5094462;28;20243;-81
2023/04/03 07:22:51;;;;;;;2.17;2.08;;;5.60;99.90;;;;;;5095036;28;20205;-80
2023/04/03 07:25:19;;;;;;;2.40;2.20;;;5.70;99.90;;;;;;5094749;28;20235;-81
2023/04/03 07:27:48;;;;;;;2.88;2.60;;;5.80;99.90;;;;;;5094463;28;20233;-81
2023/04/03 07:30:19;;;;;;;2.33;2.13;;;5.70;99.90;;;;;;5094632;28;20261;-81
2023/04/03 07:32:47;;;;;;;2.25;2.05;;;5.90;99.90;;;;;;5094787;28;20203;-81
2023/04/03 07:35:17;;;;;;;1.70;1.60;;;5.90;99.90;;;;;;5094560;28;20283;-80
2023/04/03 07:37:46;;;;;;;2.15;1.95;;;5.90;99.90;;;;;;5094153;28;20269;-81
2023/04/03 07:40:14;;;;;;;2.08;1.92;;;5.90;99.90;;;;;;5094377;28;20315;-81
2023/04/03 07:42:42;;;;;;;3.90;2.33;;;5.90;99.90;;;;;;5094289;28;20228;-80
2023/04/03 07:45:11;;;;;;;2.50;2.30;;;6.00;99.90;;;;;;5093846;28;20366;-80
2023/04/03 07:47:41;;;;;;;2.05;1.90;;;6.10;99.90;;;;;;5093888;28;20239;-80
2023/04/03 07:50:10;;;;;;;1.83;1.73;;;6.20;99.90;;;;;;5094133;28;20211;-80
2023/04/03 07:52:39;;;;;;;1.70;1.60;;;6.40;99.90;;;;;;5094290;28;20224;-80
2023/04/03 07:55:08;;;;;;;1.70;1.60;;;6.40;99.90;;;;;;5094305;28;20200;-81
2023/04/03 07:57:37;;;;;;;2.13;1.92;;;6.50;99.90;;;;;;5093477;28;20223;-80
2023/04/03 08:00:07;;;;;;;2.15;1.95;;;6.70;99.90;;;;;;5094227;28;20216;-81
2023/04/03 08:02:35;;;;;;;4.85;2.58;;;6.80;99.90;;;;;;5094346;28;20228;-81
2023/04/03 08:05:08;;;;;;;1.80;1.70;;;6.90;99.90;;;;;;5094335;28;20243;-81
2023/04/03 08:07:38;;;;;;;2.63;2.08;;;6.90;99.90;;;;;;5093868;28;20200;-81
2023/04/03 08:10:07;;;;;;;2.97;2.67;;;7.10;99.90;;;;;;5094037;28;20212;-80
2023/04/03 08:12:36;;;;;;;3.20;2.72;;;7.10;99.90;;;;;;5100841;28;20208;-81
2023/04/03 08:15:06;;;;;;;2.08;1.83;;;7.10;99.90;;;;;;5114249;28;20223;-80
2023/04/03 08:17:35;;;;;;;2.88;2.15;;;7.20;99.90;;;;;;5113760;28;20229;-81
2023/04/03 08:20:06;;;;;;;2.20;2.00;;;7.30;99.90;;;;;;5113921;28;20218;-80
2023/04/03 08:22:36;;;;;;;5.22;2.53;;;7.60;99.90;;;;;;5113976;28;20249;-80
2023/04/03 08:25:05;;;;;;;1.80;1.70;;;7.90;99.90;;;;;;5113815;28;20223;-81
2023/04/03 08:27:33;;;;;;;2.90;2.47;;;8.20;99.90;;;;;;5113791;28;20265;-81
2023/04/03 08:30:01;;;;;;;7.45;2.58;;;8.30;99.90;;;;;;5113868;28;20214;-81
2023/04/03 08:32:30;;;;;;;6.45;2.35;;;8.60;99.90;;;;;;5113897;28;20231;-81
2023/04/03 08:34:58;;;;;;;1.80;1.70;;;8.70;99.90;;;;;;5113858;28;20227;-81
2023/04/03 08:37:27;;;;;;;3.90;2.17;;;9.20;99.90;;;;;;5113122;28;20207;-81
2023/04/03 08:39:58;;;;;;;2.08;1.90;;;9.60;98.70;;;;;;5113738;28;20199;-81
2023/04/03 08:42:43;;;;;;;2.47;2.28;;;10.00;96.90;;;;;;5113824;28;20288;-81
2023/04/03 08:45:15;;;;;;;2.13;1.92;;;10.60;95.00;;;;;;5113904;28;20230;-81
2023/04/03 08:47:48;;;;;;;3.08;2.40;;;10.80;92.00;;;;;;5112515;28;20199;-81
2023/04/03 08:50:20;;;;;;;1.98;1.63;;;10.40;92.00;;;;;;5113083;28;20206;-81
2023/04/03 08:52:52;;;;;;;1.70;1.60;;;9.80;92.40;;;;;;5113893;28;20230;-81
2023/04/03 08:55:27;;;;;;;2.40;1.95;;;9.30;91.50;;;;;;5113219;28;20242;-81
2023/04/03 08:58:02;;;;;;;2.20;2.00;;;8.90;92.20;;;;;;5113075;28;20203;-81
2023/04/03 09:00:46;;;;;;;1.40;1.30;;;9.10;92.40;;;;;;5113185;28;20219;-80
2023/04/03 09:03:16;;;;;;;5.45;1.67;;;9.40;92.00;;;;;;5113535;28;20272;-80
2023/04/03 09:05:49;;;;;;;1.83;1.73;;;9.60;90.70;;;;;;5113317;28;20207;-80
2023/04/03 09:08:25;;;;;;;3.10;2.20;;;9.30;91.10;;;;;;5112907;28;20273;-81
2023/04/03 09:11:04;;;;;;;2.60;2.40;;;9.10;92.30;;;;;;5113042;28;20232;-80
2023/04/03 09:13:44;;;;;;;2.15;1.98;;;9.50;92.40;;;;;;5098497;28;20214;-80
2023/04/03 09:16:21;;;;;;;3.08;2.25;;;9.60;88.90;;;;;;5093027;28;20200;-80
2023/04/03 09:18:55;;;;;;;2.15;1.95;;;9.00;88.80;;;;;;5106611;28;20207;-81
2023/04/03 09:21:29;;;;;;;2.53;1.98;;;9.00;89.00;;;;;;5113043;28;20227;-80
2023/04/03 09:24:01;;;;;;;2.08;1.88;;;9.60;88.80;;;;;;5113027;28;20272;-80
2023/04/03 09:26:36;;;;;;;1.70;1.60;;;10.50;86.30;;;;;;5112443;28;20204;-81
2023/04/03 09:29:09;;;;;;;1.73;1.60;;;10.30;83.50;;;;;;5112809;28;20223;-80
2023/04/03 09:31:40;;;;;;;2.00;1.70;;;9.80;86.00;;;;;;5113191;28;20284;-80
2023/04/03 09:34:20;;;;;;;1.80;1.70;;;9.30;87.40;;;;;;5113209;28;20268;-80
2023/04/03 09:36:51;;;;;;;2.58;2.30;;;9.30;90.40;;;;;;5112388;28;20214;-81
2023/04/03 09:39:22;;;;;;;1.52;1.42;;;9.80;89.10;;;;;;5112867;28;20203;-81
2023/04/03 09:42:01;;;;;;;1.50;1.40;;;10.50;83.50;;;;;;5112278;28;20231;-81
2023/04/03 09:44:32;;;;;;;1.75;1.48;;;11.30;77.90;;;;;;5112966;28;20199;-81
2023/04/03 09:47:18;;;;;;;1.50;1.40;;;11.40;74.30;;;;;;5112739;28;20211;-80
2023/04/03 09:49:46;;;;;;;3.95;1.92;;;11.00;75.60;;;;;;5112396;28;20206;-81
2023/04/03 09:52:20;;;;;;;1.63;1.52;;;11.40;79.50;;;;;;5112224;28;20216;-81
2023/04/03 09:54:49;;;;;;;1.77;1.60;;;11.90;78.50;;;;;;5112642;28;20199;-81
2023/04/03 09:57:20;;;;;;;2.90;1.92;;;12.10;78.30;;;;;;5112392;28;20262;-80
2023/04/03 09:59:59;;;;;;;1.83;1.73;;;11.60;74.20;;;;;;5113158;28;20199;-80
2023/04/03 10:02:35;;;;;;;2.15;2.03;;;10.80;78.10;;;;;;5112426;28;20227;-80
2023/04/03 10:05:06;;;;;;;1.48;1.38;;;10.30;81.50;;;;;;5112631;28;20225;-80
2023/04/03 10:07:39;;;;;;;1.85;1.75;;;9.90;84.30;;;;;;5114007;28;20235;-80
2023/04/03 10:10:23;;;;;;;1.75;1.52;;;9.60;83.40;;;;;;5116761;28;20302;-79
2023/04/03 10:13:06;;;;;;;2.13;2.03;;;9.40;84.10;;;;;;5117226;28;20195;-79
2023/04/03 10:15:43;;;;;;;1.73;1.63;;;9.10;84.60;;;;;;5116682;28;20203;-79
2023/04/03 10:18:40;;;;;;;1.73;1.63;;;8.80;85.20;;;;;;5115589;28;20263;-79
2023/04/03 10:21:16;;;;;;;2.05;1.85;;;8.60;86.40;;;;;;5116387;28;20219;-79
2023/04/03 10:24:07;;;;;;;1.85;1.67;;;8.40;87.60;;;;;;5116478;28;20291;-79
2023/04/03 10:26:42;;;;;;;1.70;1.60;;;8.20;87.00;;;;;;5116443;28;20200;-79
2023/04/03 10:29:22;;;;;;;1.95;1.85;;;8.10;87.70;;;;;;5116275;28;20211;-80
2023/04/03 10:32:01;;;;;;;2.20;2.03;;;7.90;87.00;;;;;;5115964;28;20220;-81
2023/04/03 10:34:34;;;;;;;1.42;1.33;;;7.80;89.10;;;;;;5116066;28;20237;-79
2023/04/03 10:37:11;;;;;;;2.20;1.92;;;7.90;90.70;;;;;;5116291;28;20260;-78
2023/04/03 10:39:46;;;;;;;1.92;1.83;;;8.00;90.70;;;;;;5116635;28;20207;-78
2023/04/03 10:42:19;;;;;;;2.60;2.40;;;8.00;90.30;;;;;;5115655;28;20280;-78
2023/04/03 10:45:09;;;;;;;2.33;2.10;;;8.10;91.30;;;;;;5115926;28;20272;-78
2023/04/03 10:47:46;;;;;;;2.47;2.13;;;7.90;89.20;;;;;;5113830;28;20222;-90
2023/04/03 10:50:32;;;;;;;5.35;1.90;;;7.80;88.00;;;;;;5115986;28;20264;-86
2023/04/03 10:53:10;;;;;;;1.50;1.40;;;7.90;89.10;;;;;;5116532;28;20204;-86
2023/04/03 10:55:44;;;;;;;2.22;1.92;;;7.90;87.20;;;;;;5115803;28;20203;-86
2023/04/03 10:58:23;;;;;;;2.60;1.90;;;7.90;87.80;;;;;;5115186;28;20263;-85
2023/04/03 11:00:56;;;;;;;2.72;1.85;;;7.80;84.90;;;;;;5115615;28;20223;-86
2023/04/03 11:03:32;;;;;;;1.73;1.58;;;7.60;85.90;;;;;;5116042;28;20200;-86
2023/04/03 11:06:07;;;;;;;2.90;2.20;;;7.60;84.40;;;;;;5115758;28;20195;-86
2023/04/03 11:08:40;;;;;;;1.90;1.65;;;7.60;84.40;;;;;;5115173;28;20340;-85
2023/04/03 11:11:14;;;;;;;4.38;1.55;;;7.60;83.80;;;;;;5115248;28;20224;-86
2023/04/03 11:13:54;;;;;;;1.88;1.77;;;7.40;83.30;;;;;;5115508;28;20294;-85
2023/04/03 11:16:28;;;;;;;2.28;2.10;;;7.20;86.00;;;;;;5115400;28;20195;-85
2023/04/03 11:19:03;;;;;;;2.17;1.98;;;7.30;87.20;;;;;;5113483;28;20211;-86
2023/04/03 11:21:38;;;;;;;2.67;1.70;;;7.40;86.10;;;;;;5115205;28;20239;-86
2023/04/03 11:24:18;;;;;;;1.80;1.70;;;7.20;85.00;;;;;;5115419;28;20297;-85
2023/04/03 11:26:49;;;;;;;1.58;1.48;;;7.20;84.10;;;;;;5114413;28;20268;-86
2023/04/03 11:29:23;;;;;;;1.63;1.52;;;7.10;83.40;;;;;;5115018;28;20239;-86
2023/04/03 11:32:13;;;;;;;2.03;1.70;;;6.90;83.20;;;;;;5115558;28;20234;-86
2023/04/03 11:34:45;;;;;;;1.65;1.55;;;7.00;82.10;;;;;;5115277;28;20199;-86
2023/04/03 11:37:21;;;;;;;2.00;1.80;;;7.00;84.50;;;;;;5114780;28;20211;-86
2023/04/03 11:39:55;;;;;;;1.75;1.65;;;7.20;83.50;;;;;;5115175;28;20241;-85
2023/04/03 11:42:34;;;;;;;2.50;2.30;;;7.30;81.40;;;;;;5114788;28;20219;-87
2023/04/03 11:45:41;;;;;;;2.00;1.75;;;7.20;79.70;;;;;;5115562;28;20208;-85
2023/04/03 11:48:53;;;;;;;2.00;1.80;;;7.20;80.30;;;;;;5113445;28;20207;-86
2023/04/03 11:51:44;;;;;;;3.05;2.05;;;7.20;79.10;;;;;;5114649;28;20281;-85
2023/04/03 11:54:52;;;;;;;3.25;2.40;;;7.30;80.30;;;;;;5114903;28;20200;-86
2023/04/03 11:57:47;;;;;;;1.63;1.52;;;7.40;78.80;;;;;;5114086;28;20235;-87
2023/04/03 12:00:57;;;;;;;1.77;1.67;;;7.40;78.50;;;;;;5115057;28;20196;-86
2023/04/03 12:04:00;;;;;;;2.05;1.95;;;7.40;76.50;;;;;;5114065;28;20227;-85
2023/04/03 12:07:13;;;;;;;5.00;2.28;;;7.20;77.20;;;;;;5114332;28;20199;-85
2023/04/03 12:10:06;;;;;;;1.85;1.75;;;7.10;76.90;;;;;;5114141;28;20246;-86
2023/04/03 12:12:40;;;;;;;3.28;2.25;;;7.10;80.40;;;;;;5107620;28;20209;-86
2023/04/03 12:15:41;;;;;;;1.80;1.70;;;7.10;80.60;;;;;;5094337;28;20215;-85
2023/04/03 12:18:52;;;;;;;3.83;2.47;;;7.10;80.90;;;;;;5100137;28;20230;-86
2023/04/03 12:21:22;;;;;;;19.05;1.77;;;6.90;81.50;;;;;;5114205;28;20234;-86
2023/04/03 12:24:05;;;;;;;2.28;2.00;;;6.70;78.90;;;;;;5113743;28;20337;-86
2023/04/03 12:26:40;;;;;;;2.38;1.80;;;6.80;78.80;;;;;;5113979;28;20298;-86
2023/04/03 12:29:21;;;;;;;1.70;1.60;;;6.80;77.70;;;;;;5114019;28;20200;-86
2023/04/03 12:32:10;;;;;;;2.58;2.38;;;6.70;76.70;;;;;;5113850;28;20220;-86
2023/04/03 12:35:03;;;;;;;1.70;1.60;;;6.70;77.50;;;;;;5113730;28;20208;-86
2023/04/03 12:37:49;;;;;;;2.10;1.88;;;6.70;76.40;;;;;;5113436;28;20199;-85
2023/04/03 12:40:27;;;;;;;1.67;1.58;;;6.70;74.90;;;;;;5114026;28;20203;-85
2023/04/03 12:43:10;;;;;;;1.65;1.55;;;6.70;78.60;;;;;;5113704;28;20223;-86
2023/04/03 12:45:48;;;;;;;5.00;2.45;;;6.90;75.30;;;;;;5114330;28;20223;-86
2023/04/03 12:48:19;;;;;;;1.77;1.67;;;7.10;79.00;;;;;;5113802;28;20206;-85
2023/04/03 12:50:50;;;;;;;3.67;2.25;;;7.20;77.30;;;;;;5115235;28;20224;-85
2023/04/03 12:53:22;;;;;;;2.08;1.88;;;7.00;75.70;;;;;;5115442;28;20211;-85
2023/04/03 12:55:56;;;;;;;2.00;1.80;;;7.00;75.70;;;;;;5122807;28;20207;-85
2023/04/03 12:58:26;;;;;;;2.58;2.08;;;7.00;78.50;;;;;;5113093;28;20252;-85
2023/04/03 13:01:02;;;;;;;2.45;1.88;;;6.80;75.50;;;;;;5114236;28;20216;-86
2023/04/03 13:03:31;;;;;;;2.00;1.80;;;6.60;76.70;;;;;;5113417;28;20222;-86
2023/04/03 13:06:03;;;;;;;1.90;1.70;;;6.70;75.80;;;;;;5113214;28;20203;-86
2023/04/03 13:08:32;;;;;;;2.95;2.13;;;6.70;78.10;;;;;;5112754;28;20204;-86
2023/04/03 13:11:05;;;;;;;3.72;2.45;;;6.90;76.30;;;;;;5113426;28;20300;-85
2023/04/03 13:13:33;;;;;;;2.40;2.20;;;6.80;75.60;;;;;;5098826;28;20200;-85
2023/04/03 13:16:13;;;;;;;5.75;1.70;;;6.60;75.20;;;;;;5092845;28;20215;-86
2023/04/03 13:18:41;;;;;;;1.90;1.77;;;6.70;76.80;;;;;;5105172;28;20207;-86
2023/04/03 13:21:17;;;;;;;2.85;2.65;;;6.70;76.40;;;;;;5113054;28;20258;-85
2023/04/03 13:23:49;;;;;;;1.88;1.77;;;6.70;76.50;;;;;;5112973;28;20223;-85